PWSweather.com
Personal Weather Stations
Station Observations
KMAMEDFI2
Medfield, MA 02052

Medfield, MA 02052

Lat: 42.1900822, Lon: -71.3296889

Elevation: 138

Station Type: Rainwise WS MK-III

http://www.medfieldweather.com

High Low Average
Temperature 35.3°F1.8°C 13.4°F-10.3°C 23.7°F-4.6°C
Dew Point 17.0°F-8.3°C 9.7°F-12.4°C 13.4°F-10.3°C
Winds 6.9 mph 11.1 kmh Calm Calm 1.0 mph WSW1.6 kmh WSW
Wind Gusts 10.4 mph16.7 kmh -- 2.0 mph3.2 kmh
Humidity 93% 37% 68%
Pressure 30.23 in1023.7 mb 30.09 in1019.0 mb -
Precipitation 0.00 in0.0 mm - -
Hour Temp Dew Point Humidity Winds Wind Gusts Pressure Precip Precip Rate Daily Precip Total
12:00 AM 25.4°F-3.7°C 15.6°F-9.1°C 66% 2.3 mph WSW3.7 kmh WSW 2.3 mph3.7 kmh 30.06 in1017.9 mb - 0.00 in0.0 mm 0.00 in0.0 mm
12:10 AM 25.1°F-3.8°C 16.4°F-8.7°C 69% 1.2 mph W1.9 kmh W 2.3 mph3.7 kmh 30.06 in1017.9 mb - 0.00 in0.0 mm 0.00 in0.0 mm
12:20 AM 25.3°F-3.7°C 15.9°F-8.9°C 67% 2.3 mph WSW3.7 kmh WSW 2.3 mph3.7 kmh 30.07 in1018.3 mb - 0.00 in0.0 mm 0.00 in0.0 mm
12:30 AM 25.4°F-3.7°C 15.6°F-9.1°C 66% 1.2 mph NW1.9 kmh NW 2.3 mph3.7 kmh 30.08 in1018.6 mb - 0.00 in0.0 mm 0.00 in0.0 mm
12:40 AM 24.8°F-4.0°C 15.0°F-9.4°C 66% 1.2 mph WSW1.9 kmh WSW 2.3 mph3.7 kmh 30.08 in1018.6 mb - 0.00 in0.0 mm 0.00 in0.0 mm
12:50 AM 24.6°F-4.1°C 15.2°F-9.3°C 67% 2.3 mph W3.7 kmh W 2.3 mph3.7 kmh 30.08 in1018.6 mb - 0.00 in0.0 mm 0.00 in0.0 mm
01:00 AM 23.9°F-4.5°C 14.9°F-9.5°C 68% Calm Calm -- 30.09 in1019.0 mb - 0.00 in0.0 mm 0.00 in0.0 mm
01:10 AM 23.6°F-4.7°C 15.2°F-9.3°C 70% Calm Calm 2.3 mph3.7 kmh 30.09 in1019.0 mb - 0.00 in0.0 mm 0.00 in0.0 mm
01:20 AM 23.1°F-4.9°C 17.0°F-8.3°C 77% Calm Calm -- 30.10 in1019.3 mb - 0.00 in0.0 mm 0.00 in0.0 mm
01:30 AM 22.2°F-5.4°C 16.7°F-8.5°C 79% Calm Calm -- 30.09 in1019.0 mb - 0.00 in0.0 mm 0.00 in0.0 mm
01:40 AM 21.4°F-5.9°C 16.5°F-8.6°C 81% Calm Calm -- 30.09 in1019.0 mb - 0.00 in0.0 mm 0.00 in0.0 mm
01:50 AM 20.4°F-6.4°C 15.8°F-9.0°C 82% Calm Calm -- 30.11 in1019.6 mb - 0.00 in0.0 mm 0.00 in0.0 mm
02:00 AM 20.0°F-6.7°C 15.7°F-9.1°C 83% Calm Calm -- 30.11 in1019.6 mb - 0.00 in0.0 mm 0.00 in0.0 mm
02:10 AM 19.9°F-6.7°C 15.8°F-9.0°C 84% Calm Calm -- 30.11 in1019.6 mb - 0.00 in0.0 mm 0.00 in0.0 mm
02:20 AM 19.4°F-7.0°C 16.2°F-8.8°C 87% Calm Calm -- 30.12 in1020.0 mb - 0.00 in0.0 mm 0.00 in0.0 mm
02:30 AM 19.2°F-7.1°C 16.5°F-8.6°C 89% Calm Calm -- 30.12 in1020.0 mb - 0.00 in0.0 mm 0.00 in0.0 mm
02:40 AM 18.7°F-7.4°C 16.5°F-8.6°C 91% Calm Calm -- 30.12 in1020.0 mb - 0.00 in0.0 mm 0.00 in0.0 mm
02:50 AM 18.2°F-7.7°C 15.8°F-9.0°C 90% Calm Calm -- 30.12 in1020.0 mb - 0.00 in0.0 mm 0.00 in0.0 mm
03:00 AM 18.2°F-7.7°C 16.0°F-8.9°C 91% Calm Calm -- 30.12 in1020.0 mb - 0.00 in0.0 mm 0.00 in0.0 mm
03:10 AM 18.5°F-7.5°C 16.3°F-8.7°C 91% Calm Calm -- 30.12 in1020.0 mb - 0.00 in0.0 mm 0.00 in0.0 mm
03:20 AM 17.8°F-7.9°C 15.6°F-9.1°C 91% Calm Calm -- 30.12 in1020.0 mb - 0.00 in0.0 mm 0.00 in0.0 mm
03:30 AM 17.5°F-8.1°C 15.8°F-9.0°C 93% Calm Calm -- 30.11 in1019.6 mb - 0.00 in0.0 mm 0.00 in0.0 mm
03:40 AM 17.3°F-8.2°C 15.6°F-9.1°C 93% Calm Calm 1.2 mph1.9 kmh 30.12 in1020.0 mb - 0.00 in0.0 mm 0.00 in0.0 mm
03:50 AM 17.5°F-8.1°C 15.6°F-9.1°C 92% Calm Calm -- 30.12 in1020.0 mb - 0.00 in0.0 mm 0.00 in0.0 mm
04:00 AM 17.7°F-7.9°C 15.8°F-9.0°C 92% Calm Calm -- 30.12 in1020.0 mb - 0.00 in0.0 mm 0.00 in0.0 mm
04:10 AM 17.9°F-7.8°C 15.7°F-9.1°C 91% Calm Calm -- 30.12 in1020.0 mb - 0.00 in0.0 mm 0.00 in0.0 mm
04:20 AM 17.6°F-8.0°C 14.7°F-9.6°C 88% Calm Calm -- 30.12 in1020.0 mb - 0.00 in0.0 mm 0.00 in0.0 mm
04:30 AM 16.8°F-8.4°C 14.1°F-9.9°C 89% Calm Calm -- 30.13 in1020.3 mb - 0.00 in0.0 mm 0.00 in0.0 mm
04:40 AM 15.9°F-8.9°C 13.8°F-10.1°C 91% Calm Calm -- 30.14 in1020.7 mb - 0.00 in0.0 mm 0.00 in0.0 mm
04:50 AM 15.8°F-9.0°C 13.9°F-10.1°C 92% Calm Calm -- 30.14 in1020.7 mb - 0.00 in0.0 mm 0.00 in0.0 mm
05:00 AM 15.9°F-8.9°C 14.2°F-9.9°C 93% Calm Calm -- 30.14 in1020.7 mb - 0.00 in0.0 mm 0.00 in0.0 mm
05:10 AM 16.1°F-8.8°C 14.5°F-9.7°C 93% Calm Calm -- 30.14 in1020.7 mb - 0.00 in0.0 mm 0.00 in0.0 mm
05:20 AM 15.8°F-9.0°C 14.2°F-9.9°C 93% Calm Calm -- 30.15 in1021.0 mb - 0.00 in0.0 mm 0.00 in0.0 mm
05:30 AM 15.5°F-9.2°C 13.9°F-10.1°C 93% Calm Calm -- 30.15 in1021.0 mb - 0.00 in0.0 mm 0.00 in0.0 mm
05:40 AM 15.7°F-9.1°C 13.8°F-10.1°C 92% Calm Calm -- 30.14 in1020.7 mb - 0.00 in0.0 mm 0.00 in0.0 mm
05:50 AM 15.0°F-9.4°C 12.8°F-10.7°C 91% Calm Calm -- 30.14 in1020.7 mb - 0.00 in0.0 mm 0.00 in0.0 mm
06:00 AM 14.5°F-9.7°C 12.6°F-10.8°C 92% Calm Calm -- 30.15 in1021.0 mb - 0.00 in0.0 mm 0.00 in0.0 mm
06:10 AM 14.6°F-9.7°C 12.7°F-10.7°C 92% Calm Calm -- 30.15 in1021.0 mb - 0.00 in0.0 mm 0.00 in0.0 mm
06:20 AM 15.2°F-9.3°C 13.3°F-10.4°C 92% Calm Calm -- 30.15 in1021.0 mb - 0.00 in0.0 mm 0.00 in0.0 mm
06:30 AM 15.3°F-9.3°C 13.1°F-10.5°C 91% Calm Calm -- 30.15 in1021.0 mb - 0.00 in0.0 mm 0.00 in0.0 mm
06:40 AM 14.6°F-9.7°C 12.9°F-10.6°C 93% Calm Calm -- 30.14 in1020.7 mb - 0.00 in0.0 mm 0.00 in0.0 mm
06:50 AM 13.8°F-10.1°C 12.2°F-11.0°C 93% Calm Calm -- 30.14 in1020.7 mb - 0.00 in0.0 mm 0.00 in0.0 mm
07:00 AM 13.7°F-10.2°C 12.1°F-11.1°C 93% Calm Calm -- 30.14 in1020.7 mb - 0.00 in0.0 mm 0.00 in0.0 mm
07:10 AM 14.2°F-9.9°C 12.6°F-10.8°C 93% Calm Calm -- 30.15 in1021.0 mb - 0.00 in0.0 mm 0.00 in0.0 mm
07:20 AM 14.4°F-9.8°C 12.8°F-10.7°C 93% Calm Calm -- 30.15 in1021.0 mb - 0.00 in0.0 mm 0.00 in0.0 mm
07:30 AM 13.8°F-10.1°C 12.1°F-11.1°C 93% Calm Calm -- 30.16 in1021.3 mb - 0.00 in0.0 mm 0.00 in0.0 mm
07:40 AM 13.4°F-10.3°C 11.8°F-11.2°C 93% Calm Calm -- 30.16 in1021.3 mb - 0.00 in0.0 mm 0.00 in0.0 mm
07:50 AM 13.7°F-10.2°C 12.1°F-11.1°C 93% Calm Calm -- 30.16 in1021.3 mb - 0.00 in0.0 mm 0.00 in0.0 mm
08:00 AM 13.4°F-10.3°C 11.8°F-11.2°C 93% Calm Calm -- 30.16 in1021.3 mb - 0.00 in0.0 mm 0.00 in0.0 mm
08:10 AM 14.1°F-9.9°C 12.5°F-10.8°C 93% Calm Calm -- 30.16 in1021.3 mb - 0.00 in0.0 mm 0.00 in0.0 mm
08:20 AM 13.8°F-10.1°C 12.2°F-11.0°C 93% Calm Calm -- 30.16 in1021.3 mb - 0.00 in0.0 mm 0.00 in0.0 mm
08:30 AM 14.4°F-9.8°C 12.7°F-10.7°C 93% Calm Calm -- 30.16 in1021.3 mb - 0.00 in0.0 mm 0.00 in0.0 mm
08:40 AM 14.2°F-9.9°C 12.6°F-10.8°C 93% Calm Calm -- 30.16 in1021.3 mb - 0.00 in0.0 mm 0.00 in0.0 mm
08:50 AM 14.4°F-9.8°C 12.7°F-10.7°C 93% Calm Calm -- 30.16 in1021.3 mb - 0.00 in0.0 mm 0.00 in0.0 mm
09:00 AM 15.4°F-9.2°C 13.8°F-10.1°C 93% Calm Calm -- 30.16 in1021.3 mb - 0.00 in0.0 mm 0.00 in0.0 mm
09:10 AM 16.2°F-8.8°C 14.5°F-9.7°C 93% Calm Calm -- 30.17 in1021.7 mb - 0.00 in0.0 mm 0.00 in0.0 mm
09:20 AM 17.3°F-8.2°C 15.7°F-9.1°C 93% Calm Calm -- 30.17 in1021.7 mb - 0.00 in0.0 mm 0.00 in0.0 mm
09:30 AM 17.8°F-7.9°C 16.2°F-8.8°C 93% Calm Calm -- 30.17 in1021.7 mb - 0.00 in0.0 mm 0.00 in0.0 mm
09:40 AM 18.7°F-7.4°C 15.2°F-9.3°C 86% Calm Calm -- 30.17 in1021.7 mb - 0.00 in0.0 mm 0.00 in0.0 mm
09:50 AM 19.9°F-6.7°C 14.1°F-9.9°C 78% 2.3 mph S3.7 kmh S 2.3 mph3.7 kmh 30.18 in1022.0 mb - 0.00 in0.0 mm 0.00 in0.0 mm
10:00 AM 21.5°F-5.8°C 13.9°F-10.1°C 72% 3.5 mph WSW5.6 kmh WSW 6.9 mph11.1 kmh 30.17 in1021.7 mb - 0.00 in0.0 mm 0.00 in0.0 mm
10:10 AM 22.6°F-5.2°C 13.6°F-10.2°C 68% 1.2 mph WNW1.9 kmh WNW 2.3 mph3.7 kmh 30.18 in1022.0 mb - 0.00 in0.0 mm 0.00 in0.0 mm
10:20 AM 23.2°F-4.9°C 12.9°F-10.6°C 64% 3.5 mph NW5.6 kmh NW 5.8 mph9.3 kmh 30.17 in1021.7 mb - 0.00 in0.0 mm 0.00 in0.0 mm
10:30 AM 23.7°F-4.6°C 13.2°F-10.4°C 64% 5.8 mph NW9.3 kmh NW 5.8 mph9.3 kmh 30.18 in1022.0 mb - 0.00 in0.0 mm 0.00 in0.0 mm
10:40 AM 24.4°F-4.2°C 12.4°F-10.9°C 60% 3.5 mph W5.6 kmh W 8.1 mph13.0 kmh 30.18 in1022.0 mb - 0.00 in0.0 mm 0.00 in0.0 mm
10:50 AM 24.3°F-4.3°C 11.6°F-11.3°C 58% 5.8 mph WSW9.3 kmh WSW 6.9 mph11.1 kmh 30.18 in1022.0 mb - 0.00 in0.0 mm 0.00 in0.0 mm
11:00 AM 24.6°F-4.1°C 12.3°F-10.9°C 59% 3.5 mph W5.6 kmh W 5.8 mph9.3 kmh 30.18 in1022.0 mb - 0.00 in0.0 mm 0.00 in0.0 mm
11:10 AM 25.4°F-3.7°C 11.5°F-11.4°C 55% 2.3 mph SW3.7 kmh SW 3.5 mph5.6 kmh 30.19 in1022.4 mb - 0.00 in0.0 mm 0.00 in0.0 mm
11:20 AM 26.5°F-3.1°C 11.2°F-11.6°C 52% 2.3 mph WNW3.7 kmh WNW 2.3 mph3.7 kmh 30.18 in1022.0 mb - 0.00 in0.0 mm 0.00 in0.0 mm
11:30 AM 27.2°F-2.7°C 12.7°F-10.7°C 54% 4.6 mph WSW7.4 kmh WSW 8.1 mph13.0 kmh 30.19 in1022.4 mb - 0.00 in0.0 mm 0.00 in0.0 mm
11:40 AM 28.0°F-2.2°C 12.2°F-11.0°C 51% 3.5 mph W5.6 kmh W 5.8 mph9.3 kmh 30.19 in1022.4 mb - 0.00 in0.0 mm 0.00 in0.0 mm
11:50 AM 28.8°F-1.8°C 11.6°F-11.3°C 48% 1.2 mph SSW1.9 kmh SSW 2.3 mph3.7 kmh 30.18 in1022.0 mb - 0.00 in0.0 mm 0.00 in0.0 mm
12:00 PM 29.7°F-1.3°C 10.9°F-11.7°C 45% 1.2 mph SW1.9 kmh SW 3.5 mph5.6 kmh 30.18 in1022.0 mb - 0.00 in0.0 mm 0.00 in0.0 mm
12:10 PM 29.9°F-1.2°C 11.1°F-11.6°C 45% 6.9 mph W11.1 kmh W 6.9 mph11.1 kmh 30.18 in1022.0 mb - 0.00 in0.0 mm 0.00 in0.0 mm
12:20 PM 29.7°F-1.3°C 10.4°F-12.0°C 44% 3.5 mph SSW5.6 kmh SSW 3.5 mph5.6 kmh 30.18 in1022.0 mb - 0.00 in0.0 mm 0.00 in0.0 mm
12:30 PM 30.8°F-0.7°C 11.4°F-11.4°C 44% 2.3 mph S3.7 kmh S 3.5 mph5.6 kmh 30.18 in1022.0 mb - 0.00 in0.0 mm 0.00 in0.0 mm
12:40 PM 31.1°F-0.5°C 11.2°F-11.6°C 43% 5.8 mph S9.3 kmh S 8.1 mph13.0 kmh 30.18 in1022.0 mb - 0.00 in0.0 mm 0.00 in0.0 mm
12:50 PM 31.7°F-0.2°C 12.2°F-11.0°C 44% 2.3 mph NW3.7 kmh NW 2.3 mph3.7 kmh 30.17 in1021.7 mb - 0.00 in0.0 mm 0.00 in0.0 mm
01:00 PM 32.2°F0.1°C 12.2°F-11.0°C 43% 3.5 mph W5.6 kmh W 5.8 mph9.3 kmh 30.17 in1021.7 mb - 0.00 in0.0 mm 0.00 in0.0 mm
01:10 PM 32.2°F0.1°C 12.1°F-11.1°C 43% 1.2 mph SSW1.9 kmh SSW 2.3 mph3.7 kmh 30.18 in1022.0 mb - 0.00 in0.0 mm 0.00 in0.0 mm
01:20 PM 32.1°F0.1°C 12.6°F-10.8°C 44% 3.5 mph NW5.6 kmh NW 5.8 mph9.3 kmh 30.17 in1021.7 mb - 0.00 in0.0 mm 0.00 in0.0 mm
01:30 PM 32.7°F0.4°C 12.7°F-10.7°C 43% 3.5 mph S5.6 kmh S 8.1 mph13.0 kmh 30.17 in1021.7 mb - 0.00 in0.0 mm 0.00 in0.0 mm
01:40 PM 32.4°F0.2°C 11.8°F-11.2°C 42% 2.3 mph SSE3.7 kmh SSE 5.8 mph9.3 kmh 30.17 in1021.7 mb - 0.00 in0.0 mm 0.00 in0.0 mm
01:50 PM 32.6°F0.3°C 12.0°F-11.1°C 42% 3.5 mph S5.6 kmh S 2.3 mph3.7 kmh 30.17 in1021.7 mb - 0.00 in0.0 mm 0.00 in0.0 mm
02:00 PM 32.7°F0.4°C 12.1°F-11.1°C 42% 2.3 mph WSW3.7 kmh WSW 6.9 mph11.1 kmh 30.16 in1021.3 mb - 0.00 in0.0 mm 0.00 in0.0 mm
02:10 PM 33.9°F1.1°C 13.2°F-10.4°C 42% 3.5 mph WSW5.6 kmh WSW 2.3 mph3.7 kmh 30.16 in1021.3 mb - 0.00 in0.0 mm 0.00 in0.0 mm
02:20 PM 33.6°F0.9°C 12.4°F-10.9°C 41% 4.6 mph SE7.4 kmh SE 8.1 mph13.0 kmh 30.16 in1021.3 mb - 0.00 in0.0 mm 0.00 in0.0 mm
02:30 PM 33.8°F1.0°C 12.6°F-10.8°C 41% 2.3 mph S3.7 kmh S 2.3 mph3.7 kmh 30.15 in1021.0 mb - 0.00 in0.0 mm 0.00 in0.0 mm
02:40 PM 34.9°F1.6°C 13.5°F-10.3°C 41% 3.5 mph WSW5.6 kmh WSW 6.9 mph11.1 kmh 30.16 in1021.3 mb - 0.00 in0.0 mm 0.00 in0.0 mm
02:50 PM 34.8°F1.6°C 12.9°F-10.6°C 40% 6.9 mph SSE11.1 kmh SSE 10.4 mph16.7 kmh 30.15 in1021.0 mb - 0.00 in0.0 mm 0.00 in0.0 mm
03:00 PM 34.9°F1.6°C 13.0°F-10.6°C 40% 2.3 mph SW3.7 kmh SW 2.3 mph3.7 kmh 30.15 in1021.0 mb - 0.00 in0.0 mm 0.00 in0.0 mm
03:10 PM 35.3°F1.8°C 12.2°F-11.0°C 38% 5.8 mph SW9.3 kmh SW 6.9 mph11.1 kmh 30.15 in1021.0 mb - 0.00 in0.0 mm 0.00 in0.0 mm
03:20 PM 35.2°F1.8°C 12.1°F-11.1°C 38% 6.9 mph WSW11.1 kmh WSW 9.2 mph14.8 kmh 30.15 in1021.0 mb - 0.00 in0.0 mm 0.00 in0.0 mm
03:30 PM 34.8°F1.6°C 11.8°F-11.2°C 38% 4.6 mph W7.4 kmh W 6.9 mph11.1 kmh 30.16 in1021.3 mb - 0.00 in0.0 mm 0.00 in0.0 mm
03:40 PM 34.5°F1.4°C 10.9°F-11.7°C 37% 4.6 mph SSE7.4 kmh SSE 8.1 mph13.0 kmh 30.16 in1021.3 mb - 0.00 in0.0 mm 0.00 in0.0 mm
03:50 PM 33.4°F0.8°C 11.1°F-11.6°C 39% 4.6 mph W7.4 kmh W 8.1 mph13.0 kmh 30.16 in1021.3 mb - 0.00 in0.0 mm 0.00 in0.0 mm
04:00 PM 33.1°F0.6°C 10.7°F-11.8°C 39% 2.3 mph SW3.7 kmh SW 3.5 mph5.6 kmh 30.16 in1021.3 mb - 0.00 in0.0 mm 0.00 in0.0 mm
04:10 PM 33.3°F0.7°C 10.9°F-11.7°C 39% 2.3 mph WSW3.7 kmh WSW 5.8 mph9.3 kmh 30.16 in1021.3 mb - 0.00 in0.0 mm 0.00 in0.0 mm
04:20 PM 33.1°F0.6°C 10.7°F-11.8°C 39% 1.2 mph SSE1.9 kmh SSE 2.3 mph3.7 kmh 30.16 in1021.3 mb - 0.00 in0.0 mm 0.00 in0.0 mm
04:30 PM 32.9°F0.5°C 10.6°F-11.9°C 39% 2.3 mph SW3.7 kmh SW 2.3 mph3.7 kmh 30.15 in1021.0 mb - 0.00 in0.0 mm 0.00 in0.0 mm
04:40 PM 32.8°F0.4°C 11.1°F-11.6°C 40% 2.3 mph WSW3.7 kmh WSW 2.3 mph3.7 kmh 30.15 in1021.0 mb - 0.00 in0.0 mm 0.00 in0.0 mm
04:50 PM 32.5°F0.3°C 10.8°F-11.8°C 40% 1.2 mph SW1.9 kmh SW 2.3 mph3.7 kmh 30.16 in1021.3 mb - 0.00 in0.0 mm 0.00 in0.0 mm
05:00 PM 31.9°F-0.1°C 10.8°F-11.8°C 41% 1.2 mph WSW1.9 kmh WSW 5.8 mph9.3 kmh 30.16 in1021.3 mb - 0.00 in0.0 mm 0.00 in0.0 mm
05:10 PM 31.7°F-0.2°C 11.2°F-11.6°C 42% Calm Calm 2.3 mph3.7 kmh 30.17 in1021.7 mb - 0.00 in0.0 mm 0.00 in0.0 mm
05:20 PM 30.9°F-0.6°C 9.9°F-12.3°C 41% 1.2 mph SW1.9 kmh SW 2.3 mph3.7 kmh 30.17 in1021.7 mb - 0.00 in0.0 mm 0.00 in0.0 mm
05:30 PM 30.7°F-0.7°C 9.7°F-12.4°C 41% 1.2 mph SSE1.9 kmh SSE 2.3 mph3.7 kmh 30.17 in1021.7 mb - 0.00 in0.0 mm 0.00 in0.0 mm
05:40 PM 30.1°F-1.1°C 10.2°F-12.1°C 43% Calm Calm 2.3 mph3.7 kmh 30.17 in1021.7 mb - 0.00 in0.0 mm 0.00 in0.0 mm
05:50 PM 29.1°F-1.6°C 10.9°F-11.7°C 46% Calm Calm -- 30.17 in1021.7 mb - 0.00 in0.0 mm 0.00 in0.0 mm
06:00 PM 28.5°F-1.9°C 9.8°F-12.3°C 45% Calm Calm 2.3 mph3.7 kmh 30.17 in1021.7 mb - 0.00 in0.0 mm 0.00 in0.0 mm
06:10 PM 28.1°F-2.2°C 10.5°F-11.9°C 47% Calm Calm -- 30.17 in1021.7 mb - 0.00 in0.0 mm 0.00 in0.0 mm
06:20 PM 28.2°F-2.1°C 11.4°F-11.4°C 49% Calm Calm -- 30.17 in1021.7 mb - 0.00 in0.0 mm 0.00 in0.0 mm
06:30 PM 27.9°F-2.3°C 10.7°F-11.8°C 48% Calm Calm -- 30.17 in1021.7 mb - 0.00 in0.0 mm 0.00 in0.0 mm
06:40 PM 27.8°F-2.3°C 12.8°F-10.7°C 53% Calm Calm -- 30.18 in1022.0 mb - 0.00 in0.0 mm 0.00 in0.0 mm
06:50 PM 27.6°F-2.4°C 12.2°F-11.0°C 52% Calm Calm -- 30.18 in1022.0 mb - 0.00 in0.0 mm 0.00 in0.0 mm
07:00 PM 27.7°F-2.4°C 11.9°F-11.2°C 51% Calm Calm -- 30.19 in1022.4 mb - 0.00 in0.0 mm 0.00 in0.0 mm
07:10 PM 28.2°F-2.1°C 11.0°F-11.7°C 48% Calm Calm 1.2 mph1.9 kmh 30.19 in1022.4 mb - 0.00 in0.0 mm 0.00 in0.0 mm
07:20 PM 28.3°F-2.1°C 12.4°F-10.9°C 51% 1.2 mph S1.9 kmh S 2.3 mph3.7 kmh 30.20 in1022.7 mb - 0.00 in0.0 mm 0.00 in0.0 mm
07:30 PM 27.9°F-2.3°C 12.9°F-10.6°C 53% 1.2 mph SE1.9 kmh SE 2.3 mph3.7 kmh 30.20 in1022.7 mb - 0.00 in0.0 mm 0.00 in0.0 mm
07:40 PM 27.6°F-2.4°C 12.7°F-10.7°C 53% Calm Calm -- 30.20 in1022.7 mb - 0.00 in0.0 mm 0.00 in0.0 mm
07:50 PM 27.2°F-2.7°C 12.3°F-10.9°C 53% Calm Calm -- 30.21 in1023.0 mb - 0.00 in0.0 mm 0.00 in0.0 mm
08:00 PM 26.5°F-3.1°C 12.9°F-10.6°C 56% Calm Calm -- 30.21 in1023.0 mb - 0.00 in0.0 mm 0.00 in0.0 mm
08:10 PM 25.9°F-3.4°C 13.1°F-10.5°C 58% Calm Calm -- 30.22 in1023.4 mb - 0.00 in0.0 mm 0.00 in0.0 mm
08:20 PM 25.6°F-3.6°C 13.6°F-10.2°C 60% Calm Calm -- 30.22 in1023.4 mb - 0.00 in0.0 mm 0.00 in0.0 mm
08:30 PM 25.5°F-3.6°C 13.9°F-10.1°C 61% Calm Calm 2.3 mph3.7 kmh 30.22 in1023.4 mb - 0.00 in0.0 mm 0.00 in0.0 mm
08:40 PM 25.9°F-3.4°C 14.6°F-9.7°C 62% Calm Calm -- 30.22 in1023.4 mb - 0.00 in0.0 mm 0.00 in0.0 mm
08:50 PM 25.9°F-3.4°C 15.0°F-9.4°C 63% Calm Calm -- 30.22 in1023.4 mb - 0.00 in0.0 mm 0.00 in0.0 mm
09:00 PM 26.1°F-3.3°C 14.5°F-9.7°C 61% Calm Calm -- 30.22 in1023.4 mb - 0.00 in0.0 mm 0.00 in0.0 mm
09:10 PM 26.5°F-3.1°C 14.5°F-9.7°C 60% Calm Calm -- 30.21 in1023.0 mb - 0.00 in0.0 mm 0.00 in0.0 mm
09:20 PM 26.3°F-3.2°C 15.0°F-9.4°C 62% Calm Calm -- 30.22 in1023.4 mb - 0.00 in0.0 mm 0.00 in0.0 mm
09:30 PM 25.7°F-3.5°C 15.9°F-8.9°C 66% Calm Calm -- 30.22 in1023.4 mb - 0.00 in0.0 mm 0.00 in0.0 mm
09:40 PM 24.9°F-3.9°C 15.8°F-9.0°C 68% Calm Calm -- 30.22 in1023.4 mb - 0.00 in0.0 mm 0.00 in0.0 mm
09:50 PM 24.1°F-4.4°C 15.0°F-9.4°C 68% Calm Calm -- 30.22 in1023.4 mb - 0.00 in0.0 mm 0.00 in0.0 mm
10:00 PM 23.0°F-5.0°C 15.3°F-9.3°C 72% Calm Calm -- 30.22 in1023.4 mb - 0.00 in0.0 mm 0.00 in0.0 mm
10:10 PM 21.8°F-5.7°C 14.1°F-9.9°C 72% Calm Calm -- 30.22 in1023.4 mb - 0.00 in0.0 mm 0.00 in0.0 mm
10:20 PM 21.1°F-6.1°C 13.1°F-10.5°C 71% Calm Calm -- 30.23 in1023.7 mb - 0.00 in0.0 mm 0.00 in0.0 mm
10:30 PM 20.5°F-6.4°C 13.5°F-10.3°C 74% Calm Calm -- 30.23 in1023.7 mb - 0.00 in0.0 mm 0.00 in0.0 mm
10:40 PM 20.8°F-6.2°C 14.4°F-9.8°C 76% Calm Calm -- 30.22 in1023.4 mb - 0.00 in0.0 mm 0.00 in0.0 mm
10:50 PM 20.2°F-6.6°C 14.4°F-9.8°C 78% Calm Calm -- 30.22 in1023.4 mb - 0.00 in0.0 mm 0.00 in0.0 mm
11:00 PM 20.8°F-6.2°C 15.0°F-9.4°C 78% Calm Calm -- 30.22 in1023.4 mb - 0.00 in0.0 mm 0.00 in0.0 mm
11:10 PM 21.0°F-6.1°C 15.2°F-9.3°C 78% Calm Calm -- 30.21 in1023.0 mb - 0.00 in0.0 mm 0.00 in0.0 mm
11:20 PM 20.7°F-6.3°C 15.2°F-9.3°C 79% Calm Calm -- 30.21 in1023.0 mb - 0.00 in0.0 mm 0.00 in0.0 mm
11:30 PM 21.1°F-6.1°C 16.2°F-8.8°C 81% Calm Calm -- 30.21 in1023.0 mb - 0.00 in0.0 mm 0.00 in0.0 mm
11:40 PM 21.4°F-5.9°C 15.9°F-8.9°C 79% Calm Calm -- 30.21 in1023.0 mb - 0.00 in0.0 mm 0.00 in0.0 mm
11:50 PM 21.2°F-6.0°C 15.7°F-9.1°C 79% Calm Calm -- 30.21 in1023.0 mb - 0.00 in0.0 mm 0.00 in0.0 mm